Data for 05/01/2018

Time Sea-Level Adjusted Pressure Absolute Pressure Temperature Relative Humidity Dew Point   
(mb) (inHg) (mb) (inHg) (C) (F) (%) (C) (F)
00:05 1013 29.91 842 24.86 3 37.4 92 1.8 35.3
00:10 1013 29.91 842 24.86 3 37.5 92 1.9 35.3
00:15 1013 29.91 842 24.86 3.1 37.5 92 1.9 35.4
00:20 1013 29.91 842 24.86 3.1 37.5 91 1.8 35.2
00:25 1013 29.91 842 24.86 3.1 37.5 90 1.6 34.9
00:30 1013 29.91 842 24.86 3 37.5 89 1.4 34.6
00:35 1013 29.91 842 24.86 3.1 37.6 89 1.5 34.7
00:40 1013 29.91 842 24.86 3.1 37.6 88 1.3 34.4
00:45 1013 29.91 842 24.86 3.1 37.6 89 1.4 34.5
00:50 1013 29.91 842 24.86 3.1 37.6 88 1.4 34.5
00:55 1013 29.91 842 24.86 3.2 37.7 88 1.3 34.3
01:00 1013 29.91 842 24.86 3.2 37.8 88 1.4 34.5
01:05 1013 29.91 842 24.86 3.2 37.7 89 1.5 34.7
01:10 1013 29.91 842 24.86 3.1 37.6 89 1.4 34.6
01:15 1013 29.91 842 24.86 3 37.5 90 1.5 34.7
01:20 1013 29.91 842 24.86 3 37.5 90 1.6 34.8
01:25 1013 29.91 842 24.86 2.9 37.1 90 1.4 34.6
01:30 1013 29.91 842 24.86 2.8 37.1 90 1.4 34.5
01:35 1013 29.91 842 24.86 2.9 37.1 91 1.5 34.6
01:40 1013 29.91 842 24.86 2.9 37.1 91 1.5 34.7
01:45 1013 29.91 842 24.86 2.9 37.2 91 1.6 34.9
01:50 1013 29.91 842 24.86 3 37.4 90 1.5 34.7
01:55 1013 29.91 842 24.86 3.1 37.5 89 1.5 34.7
02:00 1013 29.91 842 24.86 3.1 37.6 88 1.3 34.4
02:05 1013 29.91 842 24.86 3.2 37.7 88 1.4 34.5
02:10 1013 29.91 842 24.86 3.2 37.8 89 1.5 34.7
02:15 1013 29.91 842 24.86 3.2 37.8 88 1.5 34.7
02:20 1013 29.91 842 24.86 3.3 37.9 88 1.4 34.5
02:25 1013 29.91 842 24.86 3.2 37.7 88 1.4 34.5
02:30 1013 29.91 842 24.86 3 37.4 89 1.4 34.5
02:35 1013 29.91 842 24.86 2.9 37.3 89 1.3 34.4
02:40 1013 29.91 842 24.86 2.9 37.3 90 1.4 34.5
02:45 1013 29.91 842 24.86 3 37.3 90 1.5 34.7
02:50 1013 29.91 842 24.86 3 37.4 90 1.5 34.8
02:55 1013 29.91 842 24.86 3.1 37.5 90 1.6 34.9
03:00 1013 29.91 842 24.86 3 37.5 90 1.6 34.9
03:05 1013 29.91 842 24.86 3 37.4 91 1.6 35
03:10 1012 29.88 842 24.86 3 37.5 91 1.7 35.1
03:15 1012 29.88 842 24.86 3 37.4 91 1.6 34.9
03:20 1013 29.91 842 24.86 2.8 37.1 91 1.5 34.7
03:25 1013 29.91 842 24.86 2.8 37 91 1.5 34.7
03:30 1012 29.88 842 24.86 2.7 36.9 91 1.5 34.6
03:35 1013 29.91 842 24.86 2.6 36.8 92 1.4 34.5
03:40 1012 29.88 842 24.86 2.6 36.7 92 1.4 34.6
03:45 1012 29.88 842 24.86 2.7 36.9 92 1.5 34.7
03:50 1012 29.88 842 24.86 2.8 37 92 1.5 34.8
03:55 1012 29.88 842 24.86 2.8 37 92 1.6 34.9
04:00 1012 29.88 842 24.86 2.8 37.1 91 1.6 34.8
04:05 1012 29.88 842 24.86 2.9 37.3 90 1.5 34.7
04:10 1012 29.88 842 24.86 3 37.4 89 1.4 34.5
04:15 1012 29.88 842 24.86 3.1 37.5 89 1.4 34.6
04:20 1012 29.88 842 24.86 3.1 37.5 89 1.4 34.6
04:25 1012 29.88 842 24.86 3.1 37.6 90 1.5 34.8
04:30 1012 29.88 842 24.86 3 37.4 90 1.5 34.7
04:35 1012 29.88 842 24.86 2.9 37.2 89 1.3 34.3
04:40 1012 29.88 841 24.83 2.8 37.1 89 1.2 34.1
04:45 1012 29.88 841 24.83 2.8 37 89 1.2 34.2
04:50 1012 29.88 841 24.83 2.8 37 90 1.3 34.3
04:55 1012 29.88 841 24.83 2.8 37 90 1.3 34.3
05:00 1012 29.88 841 24.83 2.8 37 90 1.3 34.4
05:05 1012 29.88 841 24.83 2.8 37 90 1.3 34.4
05:10 1012 29.88 841 24.83 2.8 37 91 1.4 34.5
05:15 1012 29.88 841 24.83 2.7 36.9 91 1.4 34.4
05:20 1012 29.88 841 24.83 2.7 36.9 91 1.3 34.4
05:25 1012 29.88 841 24.83 2.7 36.9 91 1.4 34.5
05:30 1012 29.88 841 24.83 2.8 37 91 1.4 34.6
05:35 1012 29.88 841 24.83 2.7 36.9 91 1.4 34.5
05:40 1012 29.88 841 24.83 2.7 36.9 91 1.4 34.5
05:45 1012 29.88 841 24.83 2.7 36.8 91 1.4 34.5
05:50 1012 29.88 841 24.83 2.7 36.8 91 1.4 34.5
05:55 1012 29.88 841 24.83 2.7 36.8 91 1.4 34.5
06:00 1012 29.88 841 24.83 2.7 36.9 91 1.4 34.6
06:05 1012 29.88 841 24.83 2.7 36.9 91 1.4 34.5
06:10 1012 29.88 841 24.83 2.6 36.7 91 1.3 34.3
06:15 1012 29.88 841 24.83 2.6 36.6 91 1.2 34.1
06:20 1012 29.88 842 24.86 2.7 36.8 90 1.2 34.2
06:25 1012 29.88 842 24.86 2.7 36.9 90 1.2 34.1
06:30 1012 29.88 842 24.86 2.8 37.1 89 1.3 34.3
06:35 1012 29.88 842 24.86 3 37.4 88 1.2 34.2
06:40 1012 29.88 842 24.86 3.1 37.5 88 1.3 34.3
06:45 1012 29.88 842 24.86 3.1 37.7 88 1.3 34.4
06:50 1013 29.91 842 24.86 3.2 37.7 88 1.4 34.5
06:55 1013 29.91 842 24.86 3.1 37.7 88 1.3 34.4
07:00 1013 29.91 842 24.86 3.1 37.6 88 1.4 34.4
07:05 1013 29.91 842 24.86 3 37.5 88 1.3 34.3
07:10 1013 29.91 842 24.86 3 37.5 89 1.4 34.5
07:15 1013 29.91 842 24.86 3 37.4 89 1.4 34.6
07:20 1013 29.91 842 24.86 3.1 37.5 90 1.6 34.9
07:25 1013 29.91 842 24.86 3.2 37.8 90 1.6 35
07:30 1013 29.91 842 24.86 3.2 37.8 89 1.6 34.9
07:35 1013 29.91 842 24.86 3.3 37.9 89 1.6 34.9
07:40 1013 29.91 842 24.86 3.4 38.1 89 1.7 35.1
07:45 1013 29.91 842 24.86 3.7 38.7 88 1.8 35.3
07:50 1013 29.91 842 24.86 3.8 38.9 88 2 35.6
07:55 1013 29.91 842 24.86 4.3 39.7 84 1.8 35.3
08:00 1013 29.91 842 24.86 4.6 40.3 83 2 35.5
08:05 1013 29.91 842 24.86 4.7 40.5 82 2 35.6
08:10 1013 29.91 842 24.86 4.9 40.8 83 2.3 36.1
08:15 1013 29.91 842 24.86 4.8 40.6 84 2.3 36.1
08:20 1013 29.91 842 24.86 4.7 40.4 85 2.4 36.3
08:25 1013 29.91 842 24.86 4.6 40.4 85 2.3 36.2
08:30 1013 29.91 842 24.86 4.4 40 86 2.3 36.1
08:35 1013 29.91 842 24.86 4.3 39.8 87 2.3 36.1
08:40 1013 29.91 842 24.86 4.3 39.7 86 2.2 36
08:45 1013 29.91 842 24.86 4.2 39.5 88 2.4 36.2
08:50 1013 29.91 842 24.86 4.1 39.4 88 2.3 36.2
08:55 1013 29.91 842 24.86 4.3 39.7 89 2.6 36.6
09:00 1013 29.91 842 24.86 4.5 40.1 87 2.6 36.7
09:05 1013 29.91 842 24.86 4.6 40.3 83 2 35.6
09:10 1013 29.91 842 24.86 4.8 40.7 79 1.6 34.9
09:15 1013 29.91 842 24.86 5 41.1 79 1.8 35.2
09:20 1013 29.91 842 24.86 5.1 41.1 77 1.4 34.5
09:25 1013 29.91 842 24.86 5.3 41.5 72 0.8 33.4
09:30 1013 29.91 842 24.86 5.2 41.3 75 1.1 34.1
09:35 1013 29.91 842 24.86 5.4 41.7 73 0.9 33.6
09:40 1013 29.91 842 24.86 5.4 41.8 74 1.2 34.2
09:45 1013 29.91 842 24.86 5.5 41.9 73 1.1 33.9
09:50 1013 29.91 842 24.86 5.3 41.6 75 1.3 34.4
09:55 1013 29.91 842 24.86 5.3 41.6 75 1.3 34.3
10:00 1013 29.91 842 24.86 5.1 41.3 77 1.5 34.7
10:05 1013 29.91 842 24.86 5.3 41.5 74 1.1 34
10:10 1013 29.91 842 24.86 5.3 41.6 78 1.8 35.2
10:15 1013 29.91 842 24.86 5.4 41.7 78 1.9 35.4
10:20 1013 29.91 842 24.86 5.4 41.8 79 2 35.7
10:25 1013 29.91 842 24.86 5.5 42 79 2.2 35.9
10:30 1013 29.91 842 24.86 5.5 41.9 78 2 35.5
10:35 1013 29.91 842 24.86 5.5 41.9 78 1.9 35.5
10:40 1013 29.91 842 24.86 5.3 41.5 79 2 35.5
10:45 1013 29.91 842 24.86 4.9 40.9 78 1.4 34.6
10:50 1013 29.91 842 24.86 4.8 40.6 80 1.6 34.9
10:55 1013 29.91 842 24.86 5 41.1 80 1.8 35.3
11:00 1013 29.91 842 24.86 5.5 41.9 79 2.1 35.8
11:05 1013 29.91 842 24.86 5.6 42 80 2.3 36.2
11:10 1013 29.91 842 24.86 5.7 42.2 81 2.7 36.9
11:15 1013 29.91 842 24.86 5.9 42.7 76 2 35.6
11:20 1013 29.91 843 24.89 6 42.9 75 2 35.7
11:25 1013 29.91 843 24.89 5.6 42.1 80 2.4 36.4
11:30 1013 29.91 843 24.89 5.8 42.5 74 1.6 35
11:35 1013 29.91 843 24.89 5.5 42 76 1.7 35.1
11:40 1013 29.91 843 24.89 5.7 42.2 78 2.1 35.8
11:45 1013 29.91 843 24.89 5.8 42.4 79 2.5 36.4
11:50 1013 29.91 842 24.86 5.7 42.2 75 1.7 35
11:55 1013 29.91 842 24.86 5.6 42.1 77 1.9 35.4
12:00 1013 29.91 842 24.86 5.7 42.3 77 2 35.6
12:05 1013 29.91 843 24.89 5.5 41.8 79 2.1 35.7
12:10 1013 29.91 843 24.89 5.5 41.9 79 2.1 35.8
12:15 1013 29.91 842 24.86 6 42.8 78 2.4 36.4
12:20 1013 29.91 842 24.86 6.4 43.5 73 1.9 35.4
12:25 1013 29.91 842 24.86 6.2 43.1 75 2.1 35.8
12:30 1013 29.91 842 24.86 6.6 43.9 74 2.3 36.1
12:35 1013 29.91 842 24.86 6.4 43.4 74 2 35.6
12:40 1013 29.91 842 24.86 6.3 43.3 74 2.1 35.7
12:45 1013 29.91 842 24.86 7 44.6 72 2.3 36.1
12:50 1013 29.91 842 24.86 7.2 45 74 2.9 37.3
12:55 1013 29.91 842 24.86 7.2 45 72 2.5 36.5
13:00 1013 29.91 842 24.86 7.2 44.9 72 2.4 36.4
13:05 1013 29.91 842 24.86 6.7 44.1 77 3.1 37.6
13:10 1013 29.91 843 24.89 6.7 44 74 2.3 36.1
13:15 1013 29.91 843 24.89 6.1 43 74 1.9 35.4
13:20 1013 29.91 843 24.89 5.8 42.4 73 1.3 34.4
13:25 1013 29.91 843 24.89 6.1 43 70 1 33.7
13:30 1013 29.91 843 24.89 6.1 42.9 72 1.3 34.4
13:35 1013 29.91 843 24.89 6.3 43.3 66 0.4 32.7
13:40 1013 29.91 843 24.89 6.5 43.8 69 1.3 34.4
13:45 1013 29.91 843 24.89 7.7 45.9 64 1.3 34.3
13:50 1013 29.91 843 24.89 8.4 47.1 59 0.9 33.6
13:55 1013 29.91 843 24.89 8.8 47.9 58 1 33.7
14:00 1013 29.91 843 24.89 8.5 47.3 55 -0.1 31.8
14:05 1013 29.91 843 24.89 9.4 48.8 59 1.7 35.1
14:10 1014 29.94 843 24.89 8.4 47.1 59 0.8 33.5
14:15 1013 29.91 843 24.89 9.4 48.9 56 1 33.9
14:20 1013 29.91 843 24.89 9.4 49 55 1 33.8
14:25 1013 29.91 843 24.89 9.7 49.5 54 0.8 33.4
14:30 1013 29.91 843 24.89 9.9 49.7 52 0.6 33
14:35 1013 29.91 843 24.89 9.4 48.9 55 0.8 33.5
14:40 1013 29.91 843 24.89 8.3 47 57 0.5 32.8
14:45 1013 29.91 842 24.86 8.8 47.9 53 -0.3 31.4
14:50 1013 29.91 842 24.86 9.8 49.7 50 -0.1 31.8
14:55 1013 29.91 842 24.86 10.2 50.3 50 0.2 32.4
15:00 1013 29.91 842 24.86 9.2 48.6 53 0.2 32.3
15:05 1013 29.91 842 24.86 9.8 49.6 49 -0.5 31.1
15:10 1013 29.91 842 24.86 10.2 50.4 49 0.1 32.2
15:15 1013 29.91 842 24.86 9.7 49.5 51 0 32.1
15:20 1013 29.91 842 24.86 9.6 49.3 51 -0.1 31.9
15:25 1013 29.91 842 24.86 10.4 50.8 48 0 32.1
15:30 1013 29.91 842 24.86 9.9 49.7 51 0.2 32.3
15:35 1013 29.91 842 24.86 10.4 50.6 45 -1.1 30
15:40 1013 29.91 842 24.86 10.1 50.2 46 -1 30.1
15:45 1013 29.91 842 24.86 10.3 50.6 46 -0.7 30.7
15:50 1013 29.91 842 24.86 9.9 49.9 53 0.8 33.5
15:55 1013 29.91 842 24.86 9.6 49.3 55 1.2 34.1
16:00 1013 29.91 842 24.86 9.3 48.8 57 1.2 34.2
16:05 1013 29.91 842 24.86 9.9 49.8 55 1.3 34.3
16:10 1013 29.91 842 24.86 9.7 49.5 56 1.4 34.6
16:15 1013 29.91 842 24.86 10 50 54 1.1 34
16:20 1013 29.91 843 24.89 9.9 49.9 55 1.4 34.5
16:25 1013 29.91 843 24.89 9.5 49 55 0.9 33.7
16:30 1013 29.91 843 24.89 9.2 48.5 56 0.9 33.7
16:35 1013 29.91 843 24.89 9.3 48.7 55 0.7 33.3
16:40 1013 29.91 843 24.89 9.1 48.4 53 0.1 32.3
16:45 1013 29.91 843 24.89 9.4 49 51 -0.3 31.5
16:50 1013 29.91 843 24.89 9.7 49.4 48 -0.8 30.5
16:55 1013 29.91 843 24.89 9.9 49.9 48 -0.6 30.9
17:00 1013 29.91 843 24.89 9.8 49.6 49 -0.5 31.1
17:05 1013 29.91 843 24.89 9.9 49.9 50 -0.1 31.8
17:10 1013 29.91 843 24.89 10.2 50.3 48 -0.3 31.4
17:15 1014 29.94 843 24.89 10.1 50.2 49 -0.2 31.6
17:20 1014 29.94 843 24.89 10.3 50.5 47 -0.4 31.4
17:25 1014 29.94 843 24.89 10.2 50.4 51 0.5 32.9
17:30 1014 29.94 843 24.89 9.7 49.5 53 0.6 33.1
17:35 1014 29.94 843 24.89 9.6 49.3 53 0.4 32.8
17:40 1014 29.94 843 24.89 9.4 48.8 56 1 33.7
17:45 1014 29.94 843 24.89 9 48.2 55 0.6 33
17:50 1014 29.94 843 24.89 8.5 47.4 59 1 33.8
17:55 1014 29.94 843 24.89 8.5 47.3 59 0.9 33.6
18:00 1014 29.94 843 24.89 8.1 46.5 59 0.5 32.8
18:05 1014 29.94 843 24.89 8 46.4 61 0.8 33.5
18:10 1014 29.94 843 24.89 7.8 46.1 61 0.9 33.7
18:15 1014 29.94 843 24.89 8.1 46.5 59 0.7 33.2
18:20 1014 29.94 843 24.89 8.3 46.9 61 1.2 34.2
18:25 1014 29.94 843 24.89 8.4 47.1 58 0.7 33.2
18:30 1014 29.94 843 24.89 8.6 47.6 53 -0.2 31.6
18:35 1014 29.94 843 24.89 8.6 47.5 57 0.5 33
18:40 1014 29.94 843 24.89 8.8 47.8 54 0.1 32.2
18:45 1014 29.94 843 24.89 8.7 47.6 55 0.1 32.2
18:50 1014 29.94 843 24.89 8.6 47.5 57 0.6 33
18:55 1014 29.94 843 24.89 8.7 47.7 52 -0.5 31.1
19:00 1014 29.94 843 24.89 8.6 47.4 54 -0.2 31.6
19:05 1014 29.94 843 24.89 8.4 47.2 51 -1 30.2
19:10 1014 29.94 843 24.89 8.5 47.2 53 -0.6 30.9
19:15 1014 29.94 843 24.89 8.7 47.7 53 -0.4 31.3
19:20 1014 29.94 843 24.89 8.9 48 52 -0.3 31.5
19:25 1014 29.94 843 24.89 9 48.2 50 -0.9 30.4
19:30 1014 29.94 843 24.89 9 48.2 48 -1.3 29.7
19:35 1014 29.94 844 24.92 8.9 48 50 -1.1 30.1
19:40 1014 29.94 844 24.92 8.8 47.8 49 -1.2 29.8
19:45 1014 29.94 844 24.92 8.8 47.8 53 -0.4 31.4
19:50 1015 29.97 844 24.92 8.7 47.7 54 0.1 32.1
19:55 1015 29.97 844 24.92 8.6 47.5 58 0.8 33.4
20:00 1015 29.97 844 24.92 8.5 47.3 59 0.9 33.6
20:05 1015 29.97 844 24.92 8.5 47.3 58 0.7 33.2
20:10 1015 29.97 844 24.92 8.4 47.1 58 0.7 33.2
20:15 1015 29.97 844 24.92 8.2 46.8 59 0.7 33.2
20:20 1015 29.97 844 24.92 8.1 46.5 59 0.6 33
20:25 1015 29.97 844 24.92 7.8 46.1 63 1.3 34.3
20:30 1015 29.97 844 24.92 6.6 43.9 68 1.3 34.3
20:35 1015 29.97 844 24.92 6.2 43.1 71 1.2 34.2
20:40 1015 29.97 844 24.92 5.6 42 75 1.5 34.7
20:45 1015 29.97 845 24.95 5.2 41.4 76 1.4 34.4
20:50 1015 29.97 845 24.95 5.2 41.3 77 1.5 34.7
20:55 1016 30 845 24.95 5 41.1 78 1.5 34.6
21:00 1016 30 845 24.95 4.9 40.8 78 1.3 34.3
21:05 1016 30 845 24.95 4.9 40.8 77 1.2 34.1
21:10 1016 30 845 24.95 5 41.1 75 1 33.7
21:15 1016 30 845 24.95 5.2 41.4 74 1 33.9
21:20 1016 30 845 24.95 5.4 41.7 74 1.2 34.1
21:25 1016 30 845 24.95 5.4 41.6 75 1.4 34.5
21:30 1016 30 845 24.95 5.3 41.5 77 1.5 34.8
21:35 1016 30 845 24.95 5.3 41.5 79 1.9 35.3
21:40 1016 30 845 24.95 5.3 41.5 79 1.9 35.4
21:45 1016 30 845 24.95 5.3 41.5 77 1.6 34.8
21:50 1016 30 845 24.95 5.2 41.4 76 1.3 34.4
21:55 1016 30 845 24.95 5.1 41.2 76 1.3 34.3
22:00 1016 30 846 24.98 5 41.1 76 1.2 34.2
22:05 1016 30 846 24.98 5 40.9 77 1.2 34.2
22:10 1016 30 846 24.98 4.9 40.9 78 1.3 34.4
22:15 1017 30.03 846 24.98 4.8 40.7 78 1.4 34.4
22:20 1017 30.03 846 24.98 4.8 40.7 78 1.2 34.2
22:25 1017 30.03 846 24.98 4.8 40.7 78 1.3 34.3
22:30 1017 30.03 846 24.98 4.8 40.6 77 1.2 34.1
22:35 1017 30.03 846 24.98 4.8 40.6 77 1.1 34
22:40 1017 30.03 846 24.98 4.8 40.6 78 1.2 34.1
22:45 1017 30.03 846 24.98 4.8 40.6 78 1.2 34.2
22:50 1017 30.03 846 24.98 4.7 40.4 79 1.3 34.3
22:55 1017 30.03 846 24.98 4.6 40.3 78 1.2 34.1
23:00 1017 30.03 846 24.98 4.6 40.2 78 1.1 34
23:05 1017 30.03 846 24.98 4.6 40.2 79 1.2 34.2
23:10 1017 30.03 846 24.98 4.5 40.1 79 1.2 34.2
23:15 1017 30.03 846 24.98 4.5 40.2 79 1.2 34.2
23:20 1017 30.03 846 24.98 4.5 40.1 79 1.2 34.2
23:25 1017 30.03 846 24.98 4.5 40.2 78 1.1 33.9
23:30 1017 30.03 846 24.98 4.7 40.4 77 1 33.8
23:35 1017 30.03 846 24.98 5 41.1 76 1.1 34
23:40 1017 30.03 846 24.98 5.1 41.2 76 1.1 34
23:45 1017 30.03 846 24.98 5.2 41.3 76 1.3 34.3
23:50 1017 30.03 846 24.98 5.1 41.2 76 1.2 34.2
23:55 1017 30.03 846 24.98 5 41.1 77 1.3 34.4
24:00 1017 30.03 846 24.98 4.9 40.8 78 1.4 34.5